Time;durP1;ratioP1;P1;durP2;ratioP2;P2;SDS_P1;SDS_P2;PMS_P1;PMS_P2;Temp;Humidity;BMP_temperature;BMP_pressure;BME280_temperature;BME280_humidity;BME280_pressure;Samples;Min_cycle;Max_cycle;Signal;HPM_P1;HPM_P2
2022/09/25 00:01:15;;;;;;;11.20;3.33;;;12.20;88.70;;;;;;5014359;28;20040;-44
2022/09/25 00:03:41;;;;;;;6.65;2.20;;;12.20;88.90;;;;;;5013793;28;20434;-45
2022/09/25 00:06:22;;;;;;;9.70;3.08;;;12.20;88.90;;;;;;5013807;28;20038;-44
2022/09/25 00:08:51;;;;;;;13.32;2.38;;;12.20;89.00;;;;;;5006356;28;20026;-45
2022/09/25 00:11:27;;;;;;;13.90;2.00;;;12.20;89.00;;;;;;5031246;28;20101;-44
2022/09/25 00:13:54;;;;;;;8.52;1.92;;;12.20;89.00;;;;;;5028626;28;20037;-44
2022/09/25 00:16:26;;;;;;;9.57;2.35;;;12.20;89.10;;;;;;5013104;28;20065;-44
2022/09/25 00:21:41;;;;;;;12.30;2.45;;;12.20;88.80;;;;;;5031309;28;20048;-44
2022/09/25 00:24:09;;;;;;;10.27;1.70;;;12.20;88.70;;;;;;5031266;28;20652;-44
2022/09/25 00:26:37;;;;;;;11.70;2.80;;;12.30;88.60;;;;;;5030226;28;20128;-43
2022/09/25 00:29:06;;;;;;;7.13;2.20;;;12.30;88.60;;;;;;5031379;28;20040;-44
2022/09/25 00:31:33;;;;;;;10.38;3.15;;;12.30;88.70;;;;;;5031561;28;20041;-44
2022/09/25 00:34:03;;;;;;;6.80;1.80;;;12.30;88.60;;;;;;5030579;28;20014;-46
2022/09/25 00:36:31;;;;;;;13.23;3.03;;;12.30;88.70;;;;;;5013743;28;20025;-48
2022/09/25 00:38:58;;;;;;;10.18;2.17;;;12.30;88.80;;;;;;5031207;28;20037;-44
2022/09/25 00:41:28;;;;;;;8.45;2.03;;;12.30;88.90;;;;;;5031289;28;20350;-44
2022/09/25 00:43:56;;;;;;;10.05;2.20;;;12.30;88.90;;;;;;5030682;28;20079;-43
2022/09/25 00:46:27;;;;;;;9.38;1.77;;;12.20;88.90;;;;;;5031088;28;20125;-42
2022/09/25 00:49:13;;;;;;;7.22;1.55;;;12.20;88.80;;;;;;5030997;28;20050;-43
2022/09/25 00:51:55;;;;;;;7.63;2.35;;;12.20;88.80;;;;;;5013538;28;20041;-42
2022/09/25 00:54:38;;;;;;;10.88;2.25;;;12.20;88.80;;;;;;5016599;28;20119;-45
2022/09/25 00:57:09;;;;;;;7.10;2.20;;;12.20;88.80;;;;;;5028026;28;20090;-42
2022/09/25 00:59:43;;;;;;;7.47;1.90;;;12.20;88.90;;;;;;5028987;28;20385;-47
2022/09/25 01:02:15;;;;;;;12.50;2.17;;;12.20;89.00;;;;;;5013450;28;20033;-44
2022/09/25 01:04:45;;;;;;;7.97;2.15;;;12.20;89.00;;;;;;5030823;28;20041;-47
2022/09/25 01:07:13;;;;;;;9.88;2.72;;;12.10;89.10;;;;;;5028924;28;20029;-46
2022/09/25 01:09:43;;;;;;;13.48;2.40;;;12.20;89.10;;;;;;5006644;28;20084;-43
2022/09/25 01:12:10;;;;;;;4.45;1.30;;;12.00;89.10;;;;;;5010971;28;20034;-48
2022/09/25 01:14:38;;;;;;;7.05;1.75;;;12.00;89.20;;;;;;5028522;28;20032;-45
2022/09/25 01:17:28;;;;;;;5.28;1.75;;;12.00;89.30;;;;;;5030250;28;20091;-46
2022/09/25 01:20:06;;;;;;;9.30;1.50;;;11.90;89.30;;;;;;5009176;28;20025;-44
2022/09/25 01:22:54;;;;;;;6.57;1.92;;;11.90;89.20;;;;;;4993932;28;20489;-46
2022/09/25 01:25:34;;;;;;;8.77;1.63;;;11.90;89.20;;;;;;4993328;28;20025;-42
2022/09/25 01:28:30;;;;;;;9.00;1.67;;;11.90;89.20;;;;;;5012268;28;20014;-42
2022/09/25 01:31:03;;;;;;;3.38;1.38;;;11.90;89.20;;;;;;5030091;28;20028;-44
2022/09/25 01:33:42;;;;;;;11.07;1.73;;;11.80;89.20;;;;;;5030365;28;20343;-42
2022/09/25 01:36:38;;;;;;;6.25;1.65;;;11.90;89.20;;;;;;5027961;28;20113;-45
2022/09/25 01:39:21;;;;;;;7.50;1.45;;;11.80;89.30;;;;;;4993264;28;20042;-44
2022/09/25 01:41:55;;;;;;;7.80;1.75;;;11.90;89.30;;;;;;4985249;28;20033;-44
2022/09/25 01:44:28;;;;;;;5.80;1.33;;;11.90;89.40;;;;;;5022283;28;20087;-42
2022/09/25 01:46:59;;;;;;;7.35;1.77;;;11.90;89.40;;;;;;5029759;28;20057;-43
2022/09/25 01:49:29;;;;;;;7.47;2.15;;;11.90;89.40;;;;;;5029943;28;20030;-43
2022/09/25 01:52:00;;;;;;;3.17;1.13;;;11.90;89.30;;;;;;5012563;28;20617;-44
2022/09/25 01:54:36;;;;;;;5.55;1.60;;;11.90;89.20;;;;;;5008274;28;20073;-46
2022/09/25 01:57:24;;;;;;;5.03;1.30;;;11.90;89.00;;;;;;4992675;28;20058;-44
2022/09/25 02:00:07;;;;;;;6.90;2.92;;;11.80;88.90;;;;;;5007291;28;20040;-43
2022/09/25 02:02:40;;;;;;;5.30;1.50;;;11.80;88.70;;;;;;5029338;28;20025;-43
2022/09/25 02:05:18;;;;;;;3.80;1.92;;;11.80;88.60;;;;;;5010090;28;20033;-45
2022/09/25 02:07:51;;;;;;;3.33;1.10;;;11.80;88.50;;;;;;5029181;28;20024;-45
2022/09/25 02:10:27;;;;;;;4.13;1.38;;;11.80;88.30;;;;;;5010063;28;20335;-43
2022/09/25 02:12:57;;;;;;;4.53;1.48;;;11.80;88.30;;;;;;5026892;28;20018;-43
2022/09/25 02:15:37;;;;;;;3.88;1.05;;;11.80;88.30;;;;;;5009803;28;20044;-43
2022/09/25 02:21:15;;;;;;;4.57;1.33;;;11.80;88.50;;;;;;5010262;28;19951;-45
2022/09/25 02:23:55;;;;;;;3.17;1.25;;;11.80;88.50;;;;;;5010408;28;20439;-43
2022/09/25 02:26:32;;;;;;;4.60;1.58;;;11.80;88.60;;;;;;5011826;28;20415;-45
2022/09/25 02:28:59;;;;;;;5.45;1.05;;;11.80;88.70;;;;;;5027383;28;20022;-46
2022/09/25 02:31:46;;;;;;;5.43;2.42;;;11.80;88.80;;;;;;5029797;28;20109;-43
2022/09/25 02:34:12;;;;;;;7.70;1.33;;;11.80;88.80;;;;;;5011552;28;20133;-45
2022/09/25 02:36:39;;;;;;;5.10;1.33;;;11.80;88.80;;;;;;5028367;28;20034;-45
2022/09/25 02:39:09;;;;;;;4.18;1.20;;;11.80;88.90;;;;;;5029141;28;20053;-44
2022/09/25 02:42:07;;;;;;;5.38;1.77;;;11.70;88.90;;;;;;5029511;28;20036;-43
2022/09/25 02:44:57;;;;;;;5.35;1.20;;;11.70;89.10;;;;;;5010266;28;20037;-45
2022/09/25 02:47:55;;;;;;;6.88;1.50;;;11.60;89.10;;;;;;5029372;28;20054;-48
2022/09/25 02:50:48;;;;;;;7.13;1.25;;;11.60;89.30;;;;;;5010633;28;20481;-44
2022/09/25 02:53:38;;;;;;;4.20;1.58;;;11.50;89.50;;;;;;5029259;28;20087;-43
2022/09/25 02:56:30;;;;;;;3.58;1.20;;;11.50;89.80;;;;;;5027281;28;20064;-44
2022/09/25 02:59:08;;;;;;;3.22;1.48;;;11.50;89.90;;;;;;5028484;28;20022;-44
2022/09/25 03:01:40;;;;;;;6.53;1.92;;;11.50;89.80;;;;;;5025909;28;20025;-46
2022/09/25 03:04:08;;;;;;;4.88;1.60;;;11.50;90.00;;;;;;5029386;28;20040;-46
2022/09/25 03:06:36;;;;;;;9.55;1.67;;;11.60;90.20;;;;;;5011917;28;20439;-45
2022/09/25 03:09:05;;;;;;;10.02;1.85;;;11.60;90.30;;;;;;5011902;28;20029;-46
2022/09/25 03:11:39;;;;;;;9.20;2.78;;;11.60;90.50;;;;;;5026993;28;20438;-46
2022/09/25 03:14:05;;;;;;;7.15;2.08;;;11.60;90.60;;;;;;5011804;28;20121;-42
2022/09/25 03:16:51;;;;;;;18.42;3.88;;;11.70;90.80;;;;;;5026794;28;20347;-44
2022/09/25 03:19:21;;;;;;;7.55;2.53;;;11.80;91.10;;;;;;5011481;28;20403;-45
2022/09/25 03:21:49;;;;;;;9.68;2.70;;;11.80;91.20;;;;;;5028099;28;20034;-43
2022/09/25 03:24:17;;;;;;;9.02;1.85;;;11.80;91.30;;;;;;5029188;28;20021;-42
2022/09/25 03:26:43;;;;;;;11.85;3.67;;;11.90;91.30;;;;;;5029053;28;20056;-45
2022/09/25 03:29:14;;;;;;;5.00;1.55;;;11.90;91.40;;;;;;5028875;28;20021;-44
2022/09/25 03:31:41;;;;;;;6.00;2.08;;;11.90;91.50;;;;;;5024238;28;20029;-43
2022/09/25 03:34:09;;;;;;;9.20;2.20;;;12.00;91.60;;;;;;5023819;28;20096;-42
2022/09/25 03:36:39;;;;;;;6.88;2.15;;;12.00;91.50;;;;;;5019183;28;20059;-44
2022/09/25 03:39:05;;;;;;;10.07;1.50;;;12.00;91.30;;;;;;5018170;28;20022;-46
2022/09/25 03:41:35;;;;;;;6.60;2.15;;;12.10;91.20;;;;;;5020263;28;20567;-46
2022/09/25 03:44:03;;;;;;;11.50;2.38;;;12.10;91.20;;;;;;5025807;28;20029;-43
2022/09/25 03:46:32;;;;;;;5.20;1.73;;;12.10;91.10;;;;;;5023498;28;20029;-43
2022/09/25 03:48:59;;;;;;;9.73;2.40;;;12.10;91.00;;;;;;5022660;28;20146;-43
2022/09/25 03:51:29;;;;;;;7.22;1.88;;;12.10;90.80;;;;;;5026644;28;20032;-45
2022/09/25 03:53:56;;;;;;;6.15;2.00;;;12.20;90.90;;;;;;5031021;28;20026;-43
2022/09/25 03:56:26;;;;;;;10.48;2.20;;;12.20;90.90;;;;;;5008894;28;20053;-43
2022/09/25 03:58:54;;;;;;;8.90;2.58;;;12.20;90.90;;;;;;5000486;28;20033;-45
2022/09/25 04:01:21;;;;;;;8.77;2.00;;;12.20;90.90;;;;;;5029768;28;20029;-42
2022/09/25 04:03:49;;;;;;;9.68;3.60;;;12.30;90.80;;;;;;5003676;28;20033;-43
2022/09/25 04:06:21;;;;;;;5.10;1.52;;;12.30;90.90;;;;;;5012248;28;20027;-43
2022/09/25 04:08:48;;;;;;;9.00;2.28;;;12.30;90.80;;;;;;5012790;28;20115;-42
2022/09/25 04:11:17;;;;;;;4.45;1.60;;;12.30;90.90;;;;;;5021617;28;20018;-43
2022/09/25 04:13:47;;;;;;;13.90;2.33;;;12.40;91.20;;;;;;5004853;28;20050;-43
2022/09/25 04:16:15;;;;;;;11.27;2.20;;;12.40;91.20;;;;;;5026098;28;20087;-45
2022/09/25 04:18:42;;;;;;;7.25;2.08;;;12.40;90.80;;;;;;5026923;28;20030;-44
2022/09/25 04:21:12;;;;;;;8.65;1.45;;;12.40;90.20;;;;;;5022712;28;20456;-43
2022/09/25 04:23:40;;;;;;;4.05;1.17;;;12.40;89.80;;;;;;5029590;28;20058;-43
2022/09/25 04:26:06;;;;;;;7.03;1.50;;;12.40;89.50;;;;;;5031506;28;20366;-43
2022/09/25 04:28:34;;;;;;;2.97;1.33;;;12.40;89.50;;;;;;5028525;28;20065;-43
2022/09/25 04:31:02;;;;;;;4.97;1.30;;;12.40;89.60;;;;;;5004766;28;20071;-44
2022/09/25 04:33:47;;;;;;;7.53;3.13;;;12.40;89.50;;;;;;5005654;28;20080;-43
2022/09/25 04:36:15;;;;;;;7.03;1.45;;;12.40;89.50;;;;;;5022147;28;20029;-43
2022/09/25 04:38:42;;;;;;;5.45;1.60;;;12.40;89.50;;;;;;5011498;28;20105;-43
2022/09/25 04:41:08;;;;;;;6.32;1.20;;;12.40;89.50;;;;;;5000093;28;20359;-42
2022/09/25 04:43:34;;;;;;;7.65;2.00;;;12.40;89.70;;;;;;5030994;28;20033;-42
2022/09/25 04:46:03;;;;;;;8.38;1.85;;;12.40;89.90;;;;;;5029039;28;20096;-44
2022/09/25 04:48:30;;;;;;;8.73;2.10;;;12.40;90.00;;;;;;5031087;28;20111;-45
2022/09/25 04:50:57;;;;;;;10.40;2.75;;;12.40;90.10;;;;;;5031134;28;20021;-44
2022/09/25 04:53:28;;;;;;;10.80;2.50;;;12.40;90.30;;;;;;5027056;28;20033;-43
2022/09/25 04:56:00;;;;;;;5.53;1.75;;;12.40;90.30;;;;;;5031452;28;20037;-44
2022/09/25 04:58:25;;;;;;;5.70;1.55;;;12.40;90.40;;;;;;5030980;28;20033;-42
2022/09/25 05:00:52;;;;;;;6.82;1.63;;;12.40;90.50;;;;;;5012825;28;20357;-42
2022/09/25 05:03:23;;;;;;;6.22;1.63;;;12.40;90.60;;;;;;5029666;28;20051;-43
2022/09/25 05:05:50;;;;;;;8.63;1.65;;;12.40;90.70;;;;;;5030960;28;20084;-44
2022/09/25 05:08:17;;;;;;;6.65;2.15;;;12.40;90.70;;;;;;5030929;28;20045;-43
2022/09/25 05:10:44;;;;;;;4.72;1.52;;;12.40;90.80;;;;;;5013529;28;20348;-43
2022/09/25 05:13:10;;;;;;;4.85;1.45;;;12.40;90.90;;;;;;5029764;28;20101;-44
2022/09/25 05:15:41;;;;;;;9.43;1.88;;;12.40;90.90;;;;;;5013429;28;20036;-44
2022/09/25 05:18:20;;;;;;;9.32;1.63;;;12.40;90.90;;;;;;5028673;28;20032;-44
2022/09/25 05:20:47;;;;;;;18.10;2.50;;;12.40;91.10;;;;;;5030732;28;20036;-44
2022/09/25 05:23:15;;;;;;;14.48;2.38;;;12.40;91.00;;;;;;5028967;28;20748;-42
2022/09/25 05:25:40;;;;;;;10.73;2.47;;;12.40;91.00;;;;;;5028490;28;20356;-43
2022/09/25 05:28:06;;;;;;;8.95;2.25;;;12.40;91.00;;;;;;5013107;28;20021;-44
2022/09/25 05:30:35;;;;;;;11.68;2.30;;;12.40;91.00;;;;;;5030592;28;20029;-43
2022/09/25 05:33:01;;;;;;;7.20;1.77;;;12.50;91.10;;;;;;5029756;28;20038;-43
2022/09/25 05:35:31;;;;;;;13.30;3.03;;;12.50;91.10;;;;;;5012921;28;20030;-43
2022/09/25 05:37:58;;;;;;;14.60;2.80;;;12.50;91.20;;;;;;5012759;28;20049;-43
2022/09/25 05:40:24;;;;;;;14.15;3.53;;;12.50;91.30;;;;;;5030402;28;20331;-42
2022/09/25 05:42:51;;;;;;;15.85;8.05;;;12.50;91.50;;;;;;5029588;28;20041;-43
2022/09/25 05:45:19;;;;;;;17.63;9.45;;;12.60;91.50;;;;;;5030317;28;20026;-44
2022/09/25 05:47:46;;;;;;;90.63;74.57;;;12.50;91.50;;;;;;5025238;28;20057;-42
2022/09/25 05:50:14;;;;;;;38.60;32.55;;;12.50;91.50;;;;;;5025626;28;20021;-43
2022/09/25 05:52:43;;;;;;;12.98;6.18;;;12.60;91.70;;;;;;5028058;28;20026;-44
2022/09/25 05:55:12;;;;;;;12.25;2.78;;;12.60;91.70;;;;;;5029973;28;20061;-42
2022/09/25 05:57:39;;;;;;;7.60;1.98;;;12.60;91.70;;;;;;5021858;28;20372;-42
2022/09/25 06:00:08;;;;;;;9.00;2.90;;;12.60;91.80;;;;;;5015663;28;20057;-44
2022/09/25 06:02:34;;;;;;;10.50;3.58;;;12.60;91.80;;;;;;5019675;28;20038;-43
2022/09/25 06:05:02;;;;;;;7.85;2.40;;;12.70;91.80;;;;;;5022863;28;20054;-44
2022/09/25 06:07:28;;;;;;;8.65;2.40;;;12.70;91.70;;;;;;5018845;28;20037;-43
2022/09/25 06:09:55;;;;;;;6.70;2.28;;;12.70;91.70;;;;;;5018435;28;20111;-43
2022/09/25 06:12:23;;;;;;;5.35;1.95;;;12.70;91.70;;;;;;5004686;28;20052;-42
2022/09/25 06:14:51;;;;;;;7.90;2.13;;;12.70;91.70;;;;;;5020327;28;20446;-43
2022/09/25 06:17:19;;;;;;;11.75;2.63;;;12.80;91.70;;;;;;5023023;28;20032;-44
2022/09/25 06:19:46;;;;;;;19.98;4.28;;;12.80;91.70;;;;;;5004463;28;20028;-45
2022/09/25 06:22:13;;;;;;;7.88;1.83;;;12.80;91.40;;;;;;5009061;28;20140;-43
2022/09/25 06:24:40;;;;;;;6.70;1.88;;;12.90;91.30;;;;;;5020352;28;20571;-42
2022/09/25 06:27:08;;;;;;;7.82;2.45;;;12.90;91.20;;;;;;5019132;28;20025;-45
2022/09/25 06:29:35;;;;;;;11.98;2.38;;;12.90;90.80;;;;;;5023135;28;20025;-45
2022/09/25 06:32:04;;;;;;;7.00;1.92;;;12.90;90.50;;;;;;5018851;28;20014;-42
2022/09/25 06:34:30;;;;;;;5.53;1.55;;;12.90;90.20;;;;;;5022509;28;20017;-43
2022/09/25 06:37:00;;;;;;;14.13;2.00;;;12.90;89.80;;;;;;5019922;28;20026;-44
2022/09/25 06:39:26;;;;;;;;;;;12.90;89.10;;;;;;5012465;28;20026;-46
2022/09/25 06:41:52;;;;;;;8.27;2.35;;;12.90;88.70;;;;;;5011981;28;19931;-45
2022/09/25 06:44:21;;;;;;;4.65;1.27;;;12.90;88.30;;;;;;5023801;28;20805;-44
2022/09/25 06:46:53;;;;;;;7.05;1.60;;;12.90;87.80;;;;;;5024536;28;20040;-43
2022/09/25 06:49:20;;;;;;;6.85;1.55;;;12.80;87.50;;;;;;5019996;28;20026;-42
2022/09/25 06:51:46;;;;;;;3.85;1.00;;;12.80;87.40;;;;;;5002086;28;20049;-44
2022/09/25 06:54:18;;;;;;;6.97;1.48;;;12.70;87.20;;;;;;5012746;28;20113;-43
2022/09/25 06:56:49;;;;;;;6.32;1.27;;;12.70;87.20;;;;;;5024107;28;20042;-43
2022/09/25 06:59:15;;;;;;;9.15;1.40;;;12.60;87.20;;;;;;5015118;28;20049;-43
2022/09/25 07:01:41;;;;;;;8.95;1.60;;;12.60;87.10;;;;;;5004443;28;20033;-45
2022/09/25 07:04:08;;;;;;;4.68;1.50;;;12.60;87.00;;;;;;5029509;28;20053;-44
2022/09/25 07:06:36;;;;;;;7.40;1.10;;;12.50;87.10;;;;;;5027323;28;20038;-45
2022/09/25 07:09:05;;;;;;;8.25;1.35;;;12.50;87.10;;;;;;5040767;28;20060;-44
2022/09/25 07:11:32;;;;;;;3.03;1.10;;;12.40;87.10;;;;;;5028515;28;20051;-44
2022/09/25 07:13:58;;;;;;;4.07;1.10;;;12.40;87.20;;;;;;5011449;28;20276;-44
2022/09/25 07:16:29;;;;;;;6.70;1.40;;;12.40;87.30;;;;;;5030975;28;20105;-45
2022/09/25 07:18:59;;;;;;;9.15;1.58;;;12.40;87.40;;;;;;5029152;28;20761;-44
2022/09/25 07:21:26;;;;;;;5.88;1.88;;;12.40;87.40;;;;;;5021820;28;20064;-43
2022/09/25 07:23:53;;;;;;;8.52;1.50;;;12.40;87.50;;;;;;5015783;28;20112;-44
2022/09/25 07:26:27;;;;;;;4.95;1.20;;;12.50;87.70;;;;;;5012831;28;20026;-44
2022/09/25 07:29:03;;;;;;;5.97;1.52;;;12.50;87.80;;;;;;5023219;28;20018;-46
2022/09/25 07:31:32;;;;;;;9.18;1.70;;;12.60;88.00;;;;;;5028052;28;20026;-49
2022/09/25 07:34:01;;;;;;;8.07;2.38;;;12.80;88.30;;;;;;5025731;28;20022;-44
2022/09/25 07:36:28;;;;;;;5.80;1.15;;;13.00;88.10;;;;;;5022840;28;20022;-44
2022/09/25 07:38:56;;;;;;;5.95;1.38;;;13.40;86.80;;;;;;5012391;28;20033;-48
2022/09/25 07:41:22;;;;;;;9.25;1.23;;;13.70;85.40;;;;;;5016947;28;20120;-43
2022/09/25 07:43:58;;;;;;;5.10;1.45;;;13.90;83.80;;;;;;5024263;28;20037;-44
2022/09/25 07:46:30;;;;;;;10.30;2.03;;;14.00;82.90;;;;;;5028053;28;20496;-48
2022/09/25 07:48:56;;;;;;;4.65;1.25;;;14.30;82.30;;;;;;5027766;28;20450;-44
2022/09/25 07:51:25;;;;;;;9.85;1.77;;;14.70;80.90;;;;;;4995023;28;20046;-45
2022/09/25 07:53:52;;;;;;;11.02;1.52;;;14.90;79.60;;;;;;4995197;28;20022;-46
2022/09/25 07:56:19;;;;;;;4.20;1.00;;;15.30;78.60;;;;;;5000358;28;20030;-45
2022/09/25 07:58:47;;;;;;;5.70;1.85;;;15.60;77.10;;;;;;5025535;28;20030;-45
2022/09/25 08:01:16;;;;;;;7.07;1.77;;;15.90;74.00;;;;;;5004411;28;20041;-45
2022/09/25 08:03:43;;;;;;;5.65;0.88;;;16.00;73.10;;;;;;5027910;28;20033;-45
2022/09/25 08:06:12;;;;;;;5.30;1.10;;;16.20;72.40;;;;;;5001783;28;20128;-46
2022/09/25 08:08:40;;;;;;;6.55;1.27;;;16.30;72.60;;;;;;5030823;28;20032;-46
2022/09/25 08:11:11;;;;;;;8.60;1.73;;;16.40;71.70;;;;;;5007203;28;20159;-48
2022/09/25 08:13:42;;;;;;;6.20;1.52;;;16.50;69.50;;;;;;5027081;28;20041;-47
2022/09/25 08:16:12;;;;;;;3.20;0.80;;;16.50;70.50;;;;;;5021023;28;20026;-47
2022/09/25 08:18:46;;;;;;;6.93;1.25;;;16.70;70.10;;;;;;5011853;28;20768;-46
2022/09/25 08:21:19;;;;;;;9.40;1.00;;;16.90;70.70;;;;;;5025109;28;20033;-48
2022/09/25 08:23:51;;;;;;;6.38;1.17;;;16.80;69.10;;;;;;5010812;28;20033;-45
2022/09/25 08:26:20;;;;;;;3.92;1.52;;;16.80;69.70;;;;;;5022008;28;20026;-46
2022/09/25 08:28:46;;;;;;;6.30;1.40;;;16.90;68.30;;;;;;5030991;28;20025;-47
2022/09/25 08:31:13;;;;;;;10.00;1.30;;;16.80;67.80;;;;;;5010199;28;20586;-47
2022/09/25 08:33:45;;;;;;;8.88;1.67;;;16.90;67.70;;;;;;5029302;28;21024;-45
2022/09/25 08:36:12;;;;;;;4.93;1.30;;;16.90;67.10;;;;;;5031292;28;20044;-45
2022/09/25 08:38:39;;;;;;;5.35;0.93;;;17.20;67.00;;;;;;5031751;28;20370;-46
2022/09/25 08:41:21;;;;;;;9.18;1.35;;;17.20;64.70;;;;;;5030361;28;20100;-47
2022/09/25 08:44:02;;;;;;;5.45;1.60;;;17.20;64.30;;;;;;5030666;28;20129;-46
2022/09/25 08:49:46;;;;;;;6.45;1.25;;;16.90;65.60;;;;;;5026220;28;20048;-46
2022/09/25 08:52:17;;;;;;;3.42;1.40;;;16.60;66.00;;;;;;5030921;28;20018;-48
2022/09/25 08:54:43;;;;;;;5.18;1.13;;;16.60;67.90;;;;;;5008466;28;20037;-48
2022/09/25 08:57:36;;;;;;;6.43;1.30;;;16.60;67.80;;;;;;5026645;28;20490;-47
2022/09/25 09:00:19;;;;;;;5.85;1.52;;;16.90;69.70;;;;;;5029797;28;20045;-47
2022/09/25 09:02:57;;;;;;;8.82;1.55;;;17.40;69.20;;;;;;5024716;28;20054;-46
2022/09/25 09:05:30;;;;;;;4.60;1.55;;;17.40;67.70;;;;;;5027740;28;20041;-50
2022/09/25 09:08:06;;;;;;;6.40;1.27;;;17.40;68.60;;;;;;5013064;28;20087;-46
2022/09/25 09:10:50;;;;;;;7.32;1.70;;;16.70;69.30;;;;;;5029968;28;20529;-48
2022/09/25 09:13:31;;;;;;;8.38;1.50;;;16.30;71.50;;;;;;5009464;28;20448;-45
2022/09/25 09:16:06;;;;;;;5.80;1.00;;;16.10;72.70;;;;;;5017243;28;20379;-45
2022/09/25 09:18:41;;;;;;;7.88;1.38;;;15.80;70.70;;;;;;5015291;28;20061;-46
2022/09/25 09:21:31;;;;;;;7.35;1.73;;;15.70;71.60;;;;;;5027374;28;20036;-45
2022/09/25 09:24:17;;;;;;;6.88;1.70;;;16.00;72.00;;;;;;5027506;28;20038;-48
2022/09/25 09:27:02;;;;;;;8.38;1.45;;;16.60;70.40;;;;;;5019469;28;20028;-48
2022/09/25 09:29:55;;;;;;;8.20;2.20;;;16.50;69.60;;;;;;5028391;28;20029;-45
2022/09/25 09:32:37;;;;;;;10.77;1.50;;;15.90;69.70;;;;;;5027256;28;20041;-49
2022/09/25 09:35:16;;;;;;;4.63;1.20;;;15.60;71.20;;;;;;5034258;28;20036;-44
2022/09/25 09:38:23;;;;;;;8.50;1.65;;;15.60;73.10;;;;;;5001770;28;20095;-47
2022/09/25 09:41:15;;;;;;;9.05;1.90;;;15.70;71.90;;;;;;5020010;28;20041;-48
2022/09/25 09:44:04;;;;;;;8.25;1.38;;;15.70;71.40;;;;;;5022551;28;20049;-44
2022/09/25 09:46:44;;;;;;;7.45;0.80;;;15.50;71.40;;;;;;5010308;28;20026;-47
2022/09/25 09:49:35;;;;;;;4.60;0.88;;;15.80;72.60;;;;;;5016283;28;20477;-45
2022/09/25 09:52:22;;;;;;;3.42;1.05;;;16.20;70.60;;;;;;5028122;28;20136;-45
2022/09/25 09:54:54;;;;;;;8.07;1.20;;;16.60;68.80;;;;;;5026805;28;20038;-47
2022/09/25 09:57:26;;;;;;;4.47;1.42;;;16.40;67.70;;;;;;5012870;28;20031;-50
2022/09/25 10:00:13;;;;;;;5.65;1.17;;;16.50;67.10;;;;;;5023078;28;20143;-49
2022/09/25 10:02:58;;;;;;;8.43;1.67;;;16.60;67.70;;;;;;5029525;28;20033;-46
2022/09/25 10:05:47;;;;;;;8.27;4.70;;;16.90;68.20;;;;;;5028436;28;20425;-47
2022/09/25 10:08:16;;;;;;;5.00;1.17;;;17.00;66.80;;;;;;5009757;28;20105;-50
2022/09/25 10:10:54;;;;;;;7.75;0.80;;;16.80;64.90;;;;;;4992330;28;20264;-47
2022/09/25 10:13:32;;;;;;;4.22;0.65;;;16.70;66.80;;;;;;5009903;28;20120;-45
2022/09/25 10:16:12;;;;;;;8.45;1.52;;;17.00;68.20;;;;;;5013085;28;20525;-48
2022/09/25 10:19:03;;;;;;;4.55;0.90;;;17.30;66.50;;;;;;5029272;28;20068;-46
2022/09/25 10:21:59;;;;;;;7.20;0.95;;;17.00;65.50;;;;;;5028457;28;20026;-47
2022/09/25 10:24:52;;;;;;;7.03;0.93;;;16.50;65.70;;;;;;5005684;28;20052;-46
2022/09/25 10:27:35;;;;;;;4.25;1.05;;;16.60;67.10;;;;;;5007304;28;20163;-44
2022/09/25 10:30:18;;;;;;;6.10;1.02;;;16.80;66.30;;;;;;5009550;28;20380;-47
2022/09/25 10:32:55;;;;;;;7.63;1.05;;;17.00;67.00;;;;;;5009416;28;20030;-47
2022/09/25 10:35:36;;;;;;;6.63;2.05;;;17.10;67.60;;;;;;5014944;28;20031;-49
2022/09/25 10:38:05;;;;;;;6.45;1.65;;;16.80;66.20;;;;;;5028931;28;20036;-45
2022/09/25 10:40:37;;;;;;;5.57;1.58;;;16.60;66.80;;;;;;5028756;28;20021;-47
2022/09/25 10:43:22;;;;;;;6.30;1.17;;;16.50;67.20;;;;;;5029042;28;20344;-46
2022/09/25 10:46:03;;;;;;;8.63;1.00;;;16.60;68.90;;;;;;5010310;28;20099;-45
2022/09/25 10:51:20;;;;;;;;;;;16.20;67.00;;;;;;5032212;28;20076;-46
2022/09/25 10:53:54;;;;;;;4.22;1.02;;;16.30;69.60;;;;;;5033212;28;19943;-49
2022/09/25 10:56:34;;;;;;;4.70;1.45;;;16.40;69.00;;;;;;5032071;28;20033;-45
2022/09/25 10:59:02;;;;;;;4.55;1.00;;;16.40;67.10;;;;;;5016469;28;20509;-50
2022/09/25 11:01:39;;;;;;;11.98;1.45;;;16.20;66.30;;;;;;5032919;28;20030;-47
2022/09/25 11:04:42;;;;;;;3.03;0.63;;;16.40;68.20;;;;;;5033111;28;20053;-45
2022/09/25 11:07:17;;;;;;;11.15;1.98;;;16.50;68.10;;;;;;5032755;28;20038;-48
2022/09/25 11:09:44;;;;;;;3.58;0.88;;;16.30;67.30;;;;;;5032609;28;20401;-48
2022/09/25 11:12:28;;;;;;;6.82;1.20;;;15.90;68.10;;;;;;5032540;28;20018;-45
2022/09/25 11:15:03;;;;;;;6.40;1.65;;;15.90;68.20;;;;;;5031904;28;20510;-45
2022/09/25 11:17:45;;;;;;;5.75;1.42;;;16.20;67.60;;;;;;5032570;28;20336;-46
2022/09/25 11:20:11;;;;;;;5.00;0.93;;;16.40;66.70;;;;;;5030551;28;21917;-45
2022/09/25 11:22:38;;;;;;;6.68;0.95;;;16.40;67.90;;;;;;5032324;28;20068;-49
2022/09/25 11:25:45;;;;;;;5.70;0.85;;;16.50;65.80;;;;;;5031275;28;20033;-49
2022/09/25 11:28:35;;;;;;;4.72;1.25;;;16.80;66.00;;;;;;5032371;28;20029;-46
2022/09/25 11:31:22;;;;;;;7.30;1.17;;;16.60;67.30;;;;;;5031847;28;20060;-49
2022/09/25 11:34:16;;;;;;;6.82;1.00;;;16.20;66.40;;;;;;5032436;28;20037;-46
2022/09/25 11:37:06;;;;;;;4.95;0.93;;;15.90;67.40;;;;;;5027540;28;20366;-47
2022/09/25 11:42:53;;;;;;;3.38;0.77;;;16.20;67.30;;;;;;5004107;28;20057;-47
2022/09/25 11:45:35;;;;;;;3.25;0.68;;;16.50;65.10;;;;;;4998902;28;20095;-46
2022/09/25 11:48:23;;;;;;;4.80;0.57;;;16.40;63.10;;;;;;5031490;28;20045;-46
2022/09/25 11:51:26;;;;;;;4.95;1.08;;;16.10;64.30;;;;;;5022115;28;20381;-48
2022/09/25 11:54:15;;;;;;;3.88;0.80;;;16.40;65.30;;;;;;5031508;28;20025;-46
2022/09/25 11:57:00;;;;;;;;;;;16.40;64.90;;;;;;5030767;28;20029;-46
2022/09/25 11:59:47;;;;;;;5.03;0.88;;;16.60;63.70;;;;;;5031094;28;19913;-45
2022/09/25 12:02:22;;;;;;;6.90;0.90;;;16.50;63.70;;;;;;5030479;28;20108;-45
2022/09/25 12:05:05;;;;;;;4.57;0.90;;;16.40;63.40;;;;;;5023618;28;20049;-48
2022/09/25 12:07:48;;;;;;;4.78;0.90;;;16.40;66.70;;;;;;5023495;28;20050;-48
2022/09/25 12:10:45;;;;;;;3.97;0.70;;;16.40;66.30;;;;;;5024579;28;20038;-49
2022/09/25 12:13:43;;;;;;;5.15;1.10;;;16.40;64.00;;;;;;5018219;28;20064;-45
2022/09/25 12:16:47;;;;;;;4.65;0.90;;;16.30;66.10;;;;;;5015580;28;20129;-50
2022/09/25 12:19:45;;;;;;;5.13;1.17;;;16.10;64.30;;;;;;5001186;28;20084;-46
2022/09/25 12:22:19;;;;;;;6.57;1.02;;;16.10;65.00;;;;;;5012280;28;20834;-49
2022/09/25 12:25:23;;;;;;;2.75;0.95;;;16.20;63.20;;;;;;5014294;28;20041;-49
2022/09/25 12:28:02;;;;;;;4.10;0.98;;;16.30;63.70;;;;;;4972667;28;20110;-46
2022/09/25 12:30:44;;;;;;;3.88;1.15;;;16.40;63.00;;;;;;4970344;28;20038;-45
2022/09/25 12:33:37;;;;;;;7.22;1.27;;;16.50;64.10;;;;;;4972247;28;20059;-46
2022/09/25 12:36:36;;;;;;;3.60;0.65;;;16.40;62.10;;;;;;4973889;28;20035;-51
2022/09/25 12:39:30;;;;;;;4.78;0.95;;;15.90;63.40;;;;;;4943302;28;20046;-47
2022/09/25 12:42:06;;;;;;;4.10;0.75;;;15.80;65.50;;;;;;4976001;28;20113;-48
2022/09/25 12:44:35;;;;;;;3.72;0.80;;;16.00;66.00;;;;;;4986182;28;20030;-47
2022/09/25 12:47:11;;;;;;;1.60;0.80;;;15.70;63.40;;;;;;4981318;28;20067;-46
2022/09/25 12:49:53;;;;;;;4.97;1.10;;;15.40;63.90;;;;;;4974093;28;20042;-48
2022/09/25 12:52:30;;;;;;;5.97;0.88;;;15.40;67.00;;;;;;4980630;28;20499;-46
2022/09/25 12:55:30;;;;;;;8.77;0.88;;;15.60;66.60;;;;;;4985467;28;20427;-48
2022/09/25 12:58:23;;;;;;;3.95;1.00;;;15.70;64.80;;;;;;4950390;28;20430;-50
2022/09/25 13:01:32;;;;;;;4.22;0.90;;;15.80;64.50;;;;;;4987661;28;20129;-46
2022/09/25 13:04:36;;;;;;;5.57;1.00;;;15.90;66.20;;;;;;4966098;28;20621;-46
2022/09/25 13:07:42;;;;;;;4.95;0.80;;;15.90;65.40;;;;;;4996141;28;20475;-49
2022/09/25 13:10:31;;;;;;;6.45;1.30;;;15.80;66.70;;;;;;5010674;28;20136;-49
2022/09/25 13:13:01;;;;;;;4.80;1.35;;;15.80;67.10;;;;;;5003424;28;20053;-49
2022/09/25 13:15:34;;;;;;;3.33;0.75;;;15.80;67.20;;;;;;5018065;28;20080;-49
2022/09/25 13:18:03;;;;;;;7.10;1.38;;;15.50;67.30;;;;;;5022421;28;20024;-47
2022/09/25 13:20:35;;;;;;;4.27;1.07;;;15.50;67.60;;;;;;5026166;28;20036;-45
2022/09/25 13:23:13;;;;;;;7.57;1.17;;;15.40;67.70;;;;;;5021936;28;20333;-46
2022/09/25 13:25:59;;;;;;;6.50;1.15;;;15.60;66.60;;;;;;5021923;28;20112;-46
2022/09/25 13:28:31;;;;;;;5.30;1.10;;;15.70;65.20;;;;;;5023897;28;20736;-45
2022/09/25 13:31:26;;;;;;;9.05;1.52;;;15.60;65.50;;;;;;5024297;28;20061;-46
2022/09/25 13:33:59;;;;;;;3.72;1.10;;;15.70;66.20;;;;;;5015870;28;20048;-48
2022/09/25 13:36:32;;;;;;;4.18;0.68;;;15.70;63.80;;;;;;5002587;28;20053;-50
2022/09/25 13:42:21;;;;;;;7.40;1.02;;;15.70;64.70;;;;;;5021644;28;20083;-45
2022/09/25 13:45:21;;;;;;;3.90;0.70;;;15.80;63.30;;;;;;5019460;28;20028;-49